Time;durP1;ratioP1;P1;durP2;ratioP2;P2;SDS_P1;SDS_P2;PMS_P1;PMS_P2;Temp;Humidity;BMP_temperature;BMP_pressure;BME280_temperature;BME280_humidity;BME280_pressure;Samples;Min_cycle;Max_cycle;Signal;HPM_P1;HPM_P2
2021/03/02 00:01:09;;;;;;;104.07;48.65;;;4.10;91.50;;;;;;4997051;28;20038;-68
2021/03/02 00:03:37;;;;;;;103.38;48.22;;;4.20;91.60;;;;;;4998579;28;20378;-68
2021/03/02 00:06:06;;;;;;;100.82;48.90;;;4.20;91.50;;;;;;5013118;28;20398;-68
2021/03/02 00:08:33;;;;;;;102.97;48.97;;;4.20;91.50;;;;;;5014966;28;20073;-68
2021/03/02 00:10:59;;;;;;;104.30;48.67;;;4.20;91.20;;;;;;5004886;28;20027;-68
2021/03/02 00:13:25;;;;;;;111.22;52.03;;;4.20;91.50;;;;;;4996002;28;20077;-68
2021/03/02 00:15:51;;;;;;;104.07;48.88;;;4.10;91.40;;;;;;5006016;28;20038;-68
2021/03/02 00:18:19;;;;;;;108.20;49.65;;;4.00;91.80;;;;;;5008679;28;20378;-70
2021/03/02 00:20:47;;;;;;;103.43;51.38;;;4.00;91.80;;;;;;5005061;28;20094;-66
2021/03/02 00:23:28;;;;;;;109.47;50.47;;;4.10;91.60;;;;;;5008850;28;20034;-67
2021/03/02 00:25:57;;;;;;;110.15;48.80;;;4.00;92.00;;;;;;5006805;28;20042;-68
2021/03/02 00:28:26;;;;;;;105.40;50.28;;;4.00;91.80;;;;;;5007259;28;20410;-68
2021/03/02 00:30:52;;;;;;;105.80;48.38;;;4.00;92.00;;;;;;5002859;28;20080;-66
2021/03/02 00:33:20;;;;;;;108.93;50.08;;;4.10;92.20;;;;;;5008631;28;20168;-67
2021/03/02 00:35:46;;;;;;;112.57;50.63;;;4.20;91.80;;;;;;5008881;28;20061;-67
2021/03/02 00:38:11;;;;;;;108.00;50.47;;;4.30;91.70;;;;;;4994339;28;20478;-67
2021/03/02 00:40:37;;;;;;;104.50;52.22;;;4.40;91.50;;;;;;4995262;28;20124;-65
2021/03/02 00:43:03;;;;;;;109.85;53.22;;;4.40;91.30;;;;;;4994422;28;20121;-65
2021/03/02 00:45:28;;;;;;;106.95;51.17;;;4.40;91.10;;;;;;4995323;28;20031;-66
2021/03/02 00:47:54;;;;;;;115.57;53.58;;;4.30;91.20;;;;;;5012854;28;20041;-66
2021/03/02 00:50:22;;;;;;;111.90;53.58;;;4.40;91.30;;;;;;5001035;28;20033;-66
2021/03/02 00:52:48;;;;;;;120.97;55.55;;;4.30;91.40;;;;;;5015847;28;20045;-68
2021/03/02 00:55:14;;;;;;;117.05;53.88;;;4.30;91.30;;;;;;5022234;28;20048;-66
2021/03/02 00:57:40;;;;;;;125.68;55.85;;;4.40;91.20;;;;;;5003448;28;20076;-67
2021/03/02 01:00:07;;;;;;;120.43;57.15;;;4.20;91.40;;;;;;5009566;28;20084;-67
2021/03/02 01:02:33;;;;;;;125.95;54.25;;;4.20;91.60;;;;;;5007850;28;20041;-67
2021/03/02 01:04:59;;;;;;;125.05;55.83;;;4.10;91.70;;;;;;5033820;28;20061;-67
2021/03/02 01:07:24;;;;;;;137.27;53.67;;;4.10;91.90;;;;;;5004625;28;20038;-66
2021/03/02 01:09:50;;;;;;;124.97;54.55;;;4.00;91.80;;;;;;5003060;28;20569;-66
2021/03/02 01:12:16;;;;;;;147.52;57.63;;;3.90;92.20;;;;;;5003002;28;20073;-67
2021/03/02 01:14:41;;;;;;;138.23;54.92;;;3.80;92.20;;;;;;5008483;28;20034;-67
2021/03/02 01:17:10;;;;;;;138.43;55.30;;;3.80;92.40;;;;;;5040154;28;20544;-67
2021/03/02 01:19:36;;;;;;;145.32;58.65;;;3.80;92.50;;;;;;5005006;28;20493;-66
2021/03/02 01:22:02;;;;;;;144.45;58.38;;;3.80;92.30;;;;;;5033291;28;20037;-66
2021/03/02 01:24:27;;;;;;;141.80;56.88;;;3.80;92.70;;;;;;5007542;28;20494;-67
2021/03/02 01:26:53;;;;;;;144.07;58.20;;;3.80;92.80;;;;;;5004400;28;20041;-67
2021/03/02 01:29:18;;;;;;;137.15;55.10;;;3.70;92.90;;;;;;5032767;28;20041;-67
2021/03/02 01:31:44;;;;;;;134.93;52.55;;;3.80;92.90;;;;;;5005172;28;20034;-67
2021/03/02 01:34:10;;;;;;;131.23;54.47;;;3.80;92.90;;;;;;5007067;28;20064;-66
2021/03/02 01:36:35;;;;;;;128.52;56.30;;;3.90;92.60;;;;;;5002625;28;20646;-67
2021/03/02 01:39:02;;;;;;;132.32;53.42;;;3.90;92.40;;;;;;5004880;28;20049;-66
2021/03/02 01:41:27;;;;;;;125.88;54.15;;;3.90;92.60;;;;;;5008899;28;20039;-66
2021/03/02 01:43:53;;;;;;;132.38;54.88;;;4.00;92.30;;;;;;5034994;28;20029;-67
2021/03/02 01:46:19;;;;;;;133.52;55.95;;;3.80;92.60;;;;;;5004910;28;20064;-67
2021/03/02 01:48:44;;;;;;;150.63;57.17;;;3.80;92.80;;;;;;5006773;28;20549;-66
2021/03/02 01:51:10;;;;;;;151.27;58.60;;;3.80;93.00;;;;;;5004414;28;20092;-66
2021/03/02 01:53:36;;;;;;;151.77;56.97;;;3.70;92.80;;;;;;5020403;28;20045;-66
2021/03/02 01:56:03;;;;;;;148.48;57.35;;;3.80;92.90;;;;;;5004151;28;20041;-67
2021/03/02 01:58:29;;;;;;;139.43;58.00;;;3.90;92.70;;;;;;5005454;28;20168;-66
2021/03/02 02:01:07;;;;;;;169.60;60.00;;;3.80;92.80;;;;;;5005194;28;20109;-66
2021/03/02 02:03:39;;;;;;;154.60;60.58;;;3.80;93.00;;;;;;4993603;28;20038;-67
2021/03/02 02:06:04;;;;;;;155.05;60.35;;;3.80;93.00;;;;;;4993988;28;20033;-66
2021/03/02 02:08:41;;;;;;;176.77;61.17;;;3.90;93.10;;;;;;4993581;28;20030;-66
2021/03/02 02:11:33;;;;;;;163.32;62.05;;;3.90;92.90;;;;;;5007496;28;20041;-68
2021/03/02 02:14:08;;;;;;;160.40;58.90;;;3.90;93.10;;;;;;4992856;28;20080;-67
2021/03/02 02:16:36;;;;;;;135.40;55.92;;;3.80;93.10;;;;;;5011315;28;20034;-68
2021/03/02 02:19:04;;;;;;;157.95;59.97;;;3.90;93.40;;;;;;5011339;28;20041;-68
2021/03/02 02:22:05;;;;;;;183.95;60.70;;;4.00;92.90;;;;;;5011027;28;20061;-67
2021/03/02 02:24:44;;;;;;;157.02;58.72;;;4.10;92.80;;;;;;4987504;28;20125;-67
2021/03/02 02:27:10;;;;;;;181.95;59.25;;;4.00;92.60;;;;;;4992855;28;20022;-66
2021/03/02 02:29:37;;;;;;;157.70;57.03;;;4.00;92.60;;;;;;4994329;28;20027;-66
2021/03/02 02:32:04;;;;;;;148.65;57.10;;;4.10;92.80;;;;;;5011218;28;20080;-67
2021/03/02 02:34:32;;;;;;;184.07;62.03;;;4.10;92.70;;;;;;5011728;28;20026;-67
2021/03/02 02:37:01;;;;;;;153.95;57.38;;;4.00;92.70;;;;;;4993520;28;20038;-67
2021/03/02 02:39:29;;;;;;;163.43;60.38;;;4.00;92.70;;;;;;5008838;28;20135;-67
2021/03/02 02:41:55;;;;;;;154.10;59.25;;;4.00;92.70;;;;;;5011510;28;20425;-67
2021/03/02 02:44:21;;;;;;;170.23;60.60;;;3.90;92.90;;;;;;5011169;28;20092;-67
2021/03/02 02:46:49;;;;;;;155.50;61.25;;;3.90;93.00;;;;;;5012549;28;20026;-67
2021/03/02 02:49:16;;;;;;;212.38;64.35;;;3.90;93.00;;;;;;5011078;28;20136;-67
2021/03/02 02:51:42;;;;;;;154.35;59.47;;;4.00;93.10;;;;;;5012395;28;20600;-67
2021/03/02 02:54:12;;;;;;;164.05;61.30;;;4.00;93.00;;;;;;5009931;28;20069;-67
2021/03/02 02:56:42;;;;;;;186.95;61.45;;;4.00;93.00;;;;;;5011960;28;20136;-66
2021/03/02 02:59:24;;;;;;;166.90;59.40;;;4.00;92.90;;;;;;5011890;28;20045;-66
2021/03/02 03:02:00;;;;;;;162.93;57.63;;;3.90;93.00;;;;;;5006976;28;20490;-67
2021/03/02 03:04:34;;;;;;;159.00;55.58;;;3.80;93.10;;;;;;4995863;28;20102;-67
2021/03/02 03:07:02;;;;;;;192.05;62.25;;;3.70;93.40;;;;;;4996762;28;20085;-67
2021/03/02 03:09:29;;;;;;;160.25;58.40;;;3.60;93.70;;;;;;4997708;28;20525;-67
2021/03/02 03:12:00;;;;;;;151.15;57.92;;;3.50;94.10;;;;;;5014680;28;20042;-66
2021/03/02 03:14:28;;;;;;;174.30;56.13;;;3.60;94.10;;;;;;5013945;28;20026;-66
2021/03/02 03:16:55;;;;;;;167.30;58.42;;;3.60;94.00;;;;;;4996477;28;20054;-67
2021/03/02 03:19:24;;;;;;;162.13;54.83;;;3.70;93.80;;;;;;4994437;28;20457;-67
2021/03/02 03:21:51;;;;;;;157.18;56.03;;;3.70;93.60;;;;;;4995016;28;20436;-66
2021/03/02 03:24:21;;;;;;;143.55;55.70;;;3.80;93.80;;;;;;4997769;28;20036;-67
2021/03/02 03:26:49;;;;;;;135.60;54.90;;;3.70;93.70;;;;;;4996999;28;20030;-67
2021/03/02 03:29:15;;;;;;;129.20;52.83;;;3.80;93.60;;;;;;4996237;28;20092;-67
2021/03/02 03:31:41;;;;;;;160.13;46.65;;;3.90;93.50;;;;;;5008886;28;20030;-67
2021/03/02 03:34:07;;;;;;;156.48;50.13;;;3.90;92.80;;;;;;4996214;28;20030;-67
2021/03/02 03:36:35;;;;;;;131.95;46.22;;;3.80;93.00;;;;;;5015884;28;20038;-67
2021/03/02 03:39:01;;;;;;;127.43;47.08;;;3.90;93.20;;;;;;5024369;28;20037;-67
2021/03/02 03:41:26;;;;;;;117.25;44.45;;;3.90;93.30;;;;;;5019109;28;20030;-67
2021/03/02 03:43:52;;;;;;;127.45;48.58;;;3.90;93.40;;;;;;5014928;28;20076;-66
2021/03/02 03:46:21;;;;;;;126.05;49.85;;;4.10;93.20;;;;;;5000465;28;20057;-67
2021/03/02 03:48:46;;;;;;;121.20;48.42;;;4.10;93.00;;;;;;4994999;28;20125;-67
2021/03/02 03:51:12;;;;;;;141.13;49.25;;;4.20;92.80;;;;;;5001658;28;20466;-66
2021/03/02 03:53:42;;;;;;;118.05;48.78;;;4.10;92.80;;;;;;5009192;28;20500;-66
2021/03/02 03:56:12;;;;;;;164.57;49.00;;;4.10;92.80;;;;;;5013512;28;20042;-67
2021/03/02 03:58:39;;;;;;;175.05;51.22;;;4.10;92.50;;;;;;5013674;28;20066;-67
2021/03/02 04:01:06;;;;;;;116.82;47.00;;;4.00;92.50;;;;;;5020782;28;20034;-66
2021/03/02 04:03:33;;;;;;;135.80;48.30;;;4.00;92.80;;;;;;4995785;28;20158;-66
2021/03/02 04:06:00;;;;;;;120.18;43.70;;;3.90;92.50;;;;;;4995915;28;20097;-67
2021/03/02 04:08:27;;;;;;;129.30;44.28;;;3.90;92.70;;;;;;4995395;28;20046;-67
2021/03/02 04:10:53;;;;;;;246.48;51.42;;;3.90;92.90;;;;;;5007897;28;20034;-67
2021/03/02 04:13:19;;;;;;;120.85;45.65;;;3.80;92.80;;;;;;4995312;28;20093;-67
2021/03/02 04:15:45;;;;;;;126.75;43.17;;;3.70;93.20;;;;;;5005172;28;20042;-66
2021/03/02 04:18:13;;;;;;;110.18;40.75;;;3.60;93.40;;;;;;4993603;28;20110;-66
2021/03/02 04:20:40;;;;;;;109.53;40.95;;;3.50;93.40;;;;;;4999095;28;20029;-66
2021/03/02 04:23:06;;;;;;;109.40;39.40;;;3.50;93.80;;;;;;5007539;28;20044;-67
2021/03/02 04:25:32;;;;;;;97.95;37.92;;;3.70;93.80;;;;;;5007629;28;20041;-67
2021/03/02 04:28:02;;;;;;;92.75;37.65;;;3.60;93.50;;;;;;5012328;28;20073;-67
2021/03/02 04:30:28;;;;;;;90.40;37.08;;;3.70;93.70;;;;;;5013626;28;20517;-67
2021/03/02 04:32:53;;;;;;;91.60;36.67;;;3.80;93.50;;;;;;5014171;28;20033;-67
2021/03/02 04:35:20;;;;;;;92.05;39.47;;;3.80;93.30;;;;;;5012894;28;20030;-67
2021/03/02 04:37:45;;;;;;;91.00;36.58;;;3.80;93.30;;;;;;5012234;28;20505;-67
2021/03/02 04:40:12;;;;;;;94.38;35.30;;;3.80;93.30;;;;;;5014213;28;20061;-66
2021/03/02 04:42:37;;;;;;;86.82;35.63;;;3.90;93.20;;;;;;4997037;28;20117;-67
2021/03/02 04:45:04;;;;;;;84.75;34.60;;;4.00;93.00;;;;;;4993990;28;20117;-67
2021/03/02 04:47:30;;;;;;;88.13;33.67;;;4.00;92.70;;;;;;5009286;28;20030;-67
2021/03/02 04:49:56;;;;;;;102.45;35.60;;;3.90;92.80;;;;;;5014401;28;20064;-67
2021/03/02 04:52:21;;;;;;;84.30;35.25;;;3.90;92.60;;;;;;4999139;28;20045;-66
2021/03/02 04:54:47;;;;;;;83.70;35.13;;;3.90;92.60;;;;;;4977563;28;20166;-67
2021/03/02 04:57:13;;;;;;;81.20;32.83;;;3.90;92.70;;;;;;4997481;28;20084;-67
2021/03/02 04:59:38;;;;;;;75.03;31.33;;;3.90;92.70;;;;;;4994844;28;20042;-67
2021/03/02 05:02:04;;;;;;;75.22;30.88;;;3.90;92.60;;;;;;5005635;28;20040;-67
2021/03/02 05:04:29;;;;;;;73.40;31.63;;;3.90;92.60;;;;;;5013734;28;20104;-68
2021/03/02 05:06:55;;;;;;;75.07;31.35;;;4.00;92.50;;;;;;5003402;28;20041;-69
2021/03/02 05:09:21;;;;;;;68.18;29.63;;;3.90;92.40;;;;;;4976946;28;20042;-67
2021/03/02 05:11:46;;;;;;;71.15;31.27;;;3.90;92.50;;;;;;5001108;28;20497;-67
2021/03/02 05:14:12;;;;;;;78.85;34.03;;;4.00;92.40;;;;;;5012072;28;20167;-67
2021/03/02 05:16:37;;;;;;;79.10;33.15;;;4.00;92.40;;;;;;5013205;28;20398;-67
2021/03/02 05:19:03;;;;;;;92.20;32.70;;;4.00;92.40;;;;;;5013462;28;20109;-66
2021/03/02 05:21:31;;;;;;;92.35;32.00;;;3.90;92.30;;;;;;5002955;28;20041;-67
2021/03/02 05:23:57;;;;;;;82.00;30.75;;;3.90;92.30;;;;;;4995252;28;20105;-67
2021/03/02 05:26:23;;;;;;;72.95;32.35;;;3.80;92.60;;;;;;5003359;28;20393;-67
2021/03/02 05:28:49;;;;;;;73.65;30.92;;;3.80;92.60;;;;;;4992892;28;20390;-67
2021/03/02 05:31:15;;;;;;;69.70;28.88;;;3.80;92.60;;;;;;4999863;28;20033;-67
2021/03/02 05:33:40;;;;;;;77.15;30.27;;;3.80;92.40;;;;;;4993110;28;20092;-67
2021/03/02 05:36:07;;;;;;;87.95;29.80;;;3.80;92.60;;;;;;4998975;28;20054;-67
2021/03/02 05:38:32;;;;;;;77.45;32.88;;;3.70;92.70;;;;;;5012826;28;20045;-67
2021/03/02 05:40:58;;;;;;;73.68;30.27;;;3.70;92.70;;;;;;5009221;28;20437;-67
2021/03/02 05:43:24;;;;;;;82.45;30.77;;;3.70;92.80;;;;;;4993904;28;20389;-67
2021/03/02 05:45:50;;;;;;;72.00;31.45;;;3.80;92.80;;;;;;4994170;28;20035;-68
2021/03/02 05:48:16;;;;;;;102.03;30.60;;;3.80;92.60;;;;;;5001794;28;20033;-68
2021/03/02 05:50:41;;;;;;;98.70;32.92;;;3.70;92.70;;;;;;5013809;28;20129;-67
2021/03/02 05:53:07;;;;;;;93.40;41.08;;;3.50;92.90;;;;;;4997791;28;20038;-67
2021/03/02 05:55:36;;;;;;;85.18;34.00;;;3.60;93.20;;;;;;4993168;28;20023;-68
2021/03/02 05:58:05;;;;;;;70.90;30.55;;;3.60;93.00;;;;;;5004807;28;20097;-67
2021/03/02 06:00:31;;;;;;;68.47;29.70;;;3.60;93.00;;;;;;5018653;28;20041;-68
2021/03/02 06:02:58;;;;;;;81.53;31.65;;;3.70;93.00;;;;;;5018478;28;20038;-67
2021/03/02 06:05:23;;;;;;;93.05;36.35;;;3.70;92.90;;;;;;5015975;28;20037;-66
2021/03/02 06:07:49;;;;;;;79.28;30.30;;;3.70;92.90;;;;;;4978940;28;20045;-67
2021/03/02 06:10:18;;;;;;;85.32;31.27;;;3.70;92.90;;;;;;4992188;28;20027;-67
2021/03/02 06:12:54;;;;;;;118.47;32.65;;;3.70;92.90;;;;;;5006760;28;20041;-67
2021/03/02 06:15:21;;;;;;;86.05;31.25;;;3.70;92.60;;;;;;5027351;28;20401;-67
2021/03/02 06:17:47;;;;;;;79.75;33.30;;;3.70;92.60;;;;;;4996471;28;20042;-67
2021/03/02 06:20:20;;;;;;;79.03;30.48;;;3.70;92.70;;;;;;4992535;28;20049;-67
2021/03/02 06:22:46;;;;;;;80.53;30.52;;;3.70;92.50;;;;;;5006657;28;20045;-68
2021/03/02 06:25:33;;;;;;;87.97;32.78;;;3.60;92.70;;;;;;4999072;28;20034;-66
2021/03/02 06:28:01;;;;;;;107.32;47.67;;;3.60;92.50;;;;;;5006175;28;20038;-66
2021/03/02 06:30:27;;;;;;;93.05;33.33;;;3.50;93.20;;;;;;4994921;28;20034;-66
2021/03/02 06:32:54;;;;;;;105.22;32.03;;;3.50;92.90;;;;;;5000958;28;20057;-67
2021/03/02 06:35:30;;;;;;;123.00;31.65;;;3.50;92.70;;;;;;5001593;28;20026;-67
2021/03/02 06:37:56;;;;;;;181.45;35.00;;;3.30;93.00;;;;;;5011763;28;20109;-67
2021/03/02 06:40:42;;;;;;;113.40;30.10;;;3.20;93.30;;;;;;5012489;28;20058;-66
2021/03/02 06:43:08;;;;;;;83.20;28.80;;;3.10;93.60;;;;;;4994837;28;20049;-66
2021/03/02 06:45:34;;;;;;;96.53;31.80;;;3.20;93.70;;;;;;5008170;28;20370;-67
2021/03/02 06:48:06;;;;;;;95.72;32.22;;;3.20;93.90;;;;;;5012886;28;20033;-67
2021/03/02 06:50:38;;;;;;;108.35;30.70;;;3.10;93.80;;;;;;4997395;28;20128;-67
2021/03/02 06:53:13;;;;;;;74.78;30.95;;;3.20;93.90;;;;;;4992651;28;20572;-66
2021/03/02 06:55:41;;;;;;;113.20;31.02;;;3.20;93.40;;;;;;5006805;28;20079;-67
2021/03/02 06:58:17;;;;;;;141.27;29.83;;;3.10;93.40;;;;;;5011167;28;20073;-67
2021/03/02 07:00:54;;;;;;;119.32;32.05;;;3.10;93.40;;;;;;5011490;28;20026;-67
2021/03/02 07:03:36;;;;;;;73.63;28.77;;;3.00;93.80;;;;;;5012238;28;20034;-67
2021/03/02 07:06:04;;;;;;;87.00;31.42;;;2.90;94.20;;;;;;4994219;28;20029;-67
2021/03/02 07:08:31;;;;;;;88.93;32.17;;;3.10;94.40;;;;;;4992247;28;20039;-67
2021/03/02 07:10:58;;;;;;;93.38;31.65;;;3.20;94.10;;;;;;4992694;28;20409;-68
2021/03/02 07:13:25;;;;;;;90.03;32.10;;;3.20;93.70;;;;;;4991536;28;20026;-68
2021/03/02 07:15:52;;;;;;;82.28;32.40;;;3.20;93.90;;;;;;4997827;28;20038;-68
2021/03/02 07:18:24;;;;;;;77.68;31.67;;;3.30;94.00;;;;;;5000628;28;20041;-67
2021/03/02 07:20:50;;;;;;;85.57;29.52;;;3.50;94.00;;;;;;5010159;28;20117;-67
2021/03/02 07:23:21;;;;;;;130.73;30.98;;;3.60;93.30;;;;;;5011202;28;20393;-67
2021/03/02 07:25:49;;;;;;;87.55;30.23;;;3.40;92.90;;;;;;4997611;28;20030;-68
2021/03/02 07:28:24;;;;;;;112.97;31.27;;;3.40;93.30;;;;;;4995957;28;20498;-68
2021/03/02 07:30:52;;;;;;;93.10;31.50;;;3.20;93.40;;;;;;5006435;28;20375;-68
2021/03/02 07:33:18;;;;;;;89.07;33.35;;;3.10;93.80;;;;;;4993619;28;20521;-68
2021/03/02 07:35:45;;;;;;;80.72;30.48;;;3.20;94.00;;;;;;4986764;28;20041;-67
2021/03/02 07:38:12;;;;;;;104.18;36.35;;;3.30;93.90;;;;;;5010459;28;20026;-68
2021/03/02 07:40:46;;;;;;;83.10;32.00;;;3.50;93.80;;;;;;5000669;28;20050;-67
2021/03/02 07:43:34;;;;;;;86.38;32.08;;;3.50;93.30;;;;;;4990662;28;20121;-72
2021/03/02 07:46:20;;;;;;;73.60;31.20;;;3.60;93.10;;;;;;4992341;28;20039;-68
2021/03/02 07:48:45;;;;;;;78.13;30.40;;;3.70;93.20;;;;;;4993589;28;20378;-68
2021/03/02 07:51:15;;;;;;;71.57;30.50;;;3.80;93.00;;;;;;5008551;28;20096;-67
2021/03/02 07:53:44;;;;;;;97.35;29.13;;;3.90;92.60;;;;;;5015425;28;20053;-67
2021/03/02 07:56:16;;;;;;;85.70;29.10;;;3.80;92.40;;;;;;5014685;28;20030;-66
2021/03/02 07:58:42;;;;;;;66.20;27.65;;;3.80;92.30;;;;;;5013491;28;20045;-70
2021/03/02 08:01:19;;;;;;;96.55;29.83;;;3.70;92.40;;;;;;5014389;28;20069;-68
2021/03/02 08:03:45;;;;;;;97.72;28.95;;;3.60;92.80;;;;;;5014315;28;20048;-68
2021/03/02 08:06:22;;;;;;;102.63;31.00;;;3.50;92.90;;;;;;5013671;28;20034;-68
2021/03/02 08:08:49;;;;;;;92.60;29.13;;;3.50;93.00;;;;;;5011641;28;20038;-66
2021/03/02 08:11:36;;;;;;;79.35;29.70;;;3.50;92.80;;;;;;4995413;28;20038;-66
2021/03/02 08:14:17;;;;;;;78.18;26.85;;;3.40;93.00;;;;;;5006877;28;20041;-65
2021/03/02 08:16:52;;;;;;;72.75;27.83;;;3.60;92.50;;;;;;5001580;28;20109;-70
2021/03/02 08:19:41;;;;;;;71.90;27.83;;;3.70;92.40;;;;;;5015896;28;20061;-69
2021/03/02 08:22:19;;;;;;;72.32;28.45;;;3.70;92.50;;;;;;5015652;28;20096;-69
2021/03/02 08:24:51;;;;;;;57.97;25.60;;;3.80;92.60;;;;;;5006460;28;20033;-70
2021/03/02 08:27:35;;;;;;;65.72;26.45;;;3.80;92.80;;;;;;4998137;28;20059;-68
2021/03/02 08:30:00;;;;;;;63.70;25.42;;;4.00;92.40;;;;;;4996301;28;20030;-67
2021/03/02 08:32:28;;;;;;;71.85;27.35;;;3.80;92.10;;;;;;5013267;28;20144;-67
2021/03/02 08:34:55;;;;;;;65.05;27.13;;;3.80;92.80;;;;;;5017412;28;20120;-67
2021/03/02 08:37:41;;;;;;;61.28;24.05;;;3.80;92.90;;;;;;5008598;28;20106;-69
2021/03/02 08:40:09;;;;;;;63.25;25.92;;;3.60;92.40;;;;;;5004921;28;20042;-69
2021/03/02 08:42:35;;;;;;;63.47;26.67;;;3.60;92.90;;;;;;5019408;28;20117;-68
2021/03/02 08:45:09;;;;;;;62.05;25.70;;;3.80;92.80;;;;;;5005214;28;20065;-70
2021/03/02 08:47:36;;;;;;;69.75;27.17;;;4.00;92.50;;;;;;5015215;28;20084;-69
2021/03/02 08:50:03;;;;;;;80.85;26.67;;;4.10;92.30;;;;;;4996715;28;20038;-69
2021/03/02 08:52:42;;;;;;;69.05;26.55;;;4.00;92.00;;;;;;4995252;28;20092;-68
2021/03/02 08:55:09;;;;;;;62.92;26.45;;;4.00;92.40;;;;;;4994136;28;20027;-69
2021/03/02 08:57:45;;;;;;;79.63;27.02;;;4.00;92.10;;;;;;5011657;28;20029;-71
2021/03/02 09:00:17;;;;;;;61.60;26.55;;;3.80;92.10;;;;;;5015276;28;20061;-69
2021/03/02 09:02:44;;;;;;;57.17;26.40;;;3.80;92.30;;;;;;5006342;28;20034;-70
2021/03/02 09:05:19;;;;;;;64.30;24.23;;;3.80;92.40;;;;;;4994940;28;20065;-69
2021/03/02 09:08:08;;;;;;;61.22;25.33;;;3.90;92.20;;;;;;5003383;28;20040;-70
2021/03/02 09:10:34;;;;;;;56.85;24.10;;;3.90;92.20;;;;;;5029370;28;20042;-68
2021/03/02 09:13:05;;;;;;;53.80;23.70;;;3.80;92.70;;;;;;5004878;28;20038;-69
2021/03/02 09:15:36;;;;;;;43.30;23.38;;;3.70;91.90;;;;;;5009828;28;20069;-68
2021/03/02 09:18:18;;;;;;;45.65;23.85;;;3.60;92.60;;;;;;5007496;28;20121;-72
2021/03/02 09:20:54;;;;;;;49.20;24.13;;;3.70;92.70;;;;;;5014518;28;20026;-71
2021/03/02 09:23:22;;;;;;;52.30;23.85;;;3.80;92.50;;;;;;5013493;28;20569;-70
2021/03/02 09:25:53;;;;;;;43.40;21.90;;;4.00;92.20;;;;;;5014524;28;20370;-69
2021/03/02 09:28:19;;;;;;;37.92;20.92;;;4.10;91.70;;;;;;5004527;28;20498;-68
2021/03/02 09:30:46;;;;;;;50.92;24.60;;;4.20;91.80;;;;;;4998664;28;20057;-68
2021/03/02 09:33:16;;;;;;;53.42;25.17;;;4.30;91.70;;;;;;5004590;28;20125;-70
2021/03/02 09:35:42;;;;;;;52.65;23.17;;;4.40;91.50;;;;;;5010182;28;20034;-70
2021/03/02 09:38:26;;;;;;;59.83;23.65;;;4.40;91.10;;;;;;5003988;28;20049;-71
2021/03/02 09:40:52;;;;;;;52.60;25.50;;;4.30;91.10;;;;;;5005746;28;20397;-68
2021/03/02 09:43:17;;;;;;;53.20;26.38;;;4.40;91.10;;;;;;5013520;28;20110;-65
2021/03/02 09:45:53;;;;;;;48.40;26.05;;;4.50;91.40;;;;;;5012039;28;20040;-67
2021/03/02 09:48:19;;;;;;;68.20;37.88;;;4.70;90.60;;;;;;5014572;28;20394;-69
2021/03/02 09:50:44;;;;;;;51.75;26.27;;;4.80;90.50;;;;;;5012744;28;20033;-64
2021/03/02 09:53:14;;;;;;;52.15;26.65;;;4.70;90.60;;;;;;5012871;28;20033;-63
2021/03/02 09:55:42;;;;;;;49.15;26.58;;;4.50;90.70;;;;;;5012777;28;20636;-63
2021/03/02 09:58:16;;;;;;;40.20;22.77;;;4.50;91.30;;;;;;5007370;28;20149;-63
2021/03/02 10:00:45;;;;;;;44.95;25.75;;;4.70;90.70;;;;;;4993305;28;20030;-64
2021/03/02 10:03:12;;;;;;;42.88;22.98;;;4.60;90.90;;;;;;4998888;28;20049;-63
2021/03/02 10:05:56;;;;;;;42.90;23.15;;;4.70;90.60;;;;;;5011017;28;20014;-63
2021/03/02 10:08:42;;;;;;;39.43;23.07;;;4.60;90.80;;;;;;5007113;28;20129;-64
2021/03/02 10:11:11;;;;;;;40.53;22.05;;;4.60;91.10;;;;;;5006249;28;20041;-64
2021/03/02 10:13:41;;;;;;;41.65;22.75;;;4.60;90.90;;;;;;4999694;28;20054;-64
2021/03/02 10:16:25;;;;;;;35.38;20.88;;;4.50;91.50;;;;;;5003904;28;20108;-66
2021/03/02 10:19:21;;;;;;;40.75;22.90;;;4.70;91.20;;;;;;5001881;28;20034;-72
2021/03/02 10:21:57;;;;;;;44.50;24.15;;;4.70;91.10;;;;;;5005935;28;20088;-71
2021/03/02 10:24:25;;;;;;;44.20;24.45;;;4.80;90.70;;;;;;5002361;28;20050;-71
2021/03/02 10:26:55;;;;;;;43.17;23.58;;;4.90;90.50;;;;;;5013453;28;20085;-68
2021/03/02 10:29:22;;;;;;;36.40;21.48;;;4.90;90.50;;;;;;5004756;28;20042;-66
2021/03/02 10:31:48;;;;;;;34.13;20.85;;;5.10;90.30;;;;;;5005843;28;20029;-71
2021/03/02 10:34:14;;;;;;;36.80;22.17;;;5.40;89.30;;;;;;5013779;28;20038;-69
2021/03/02 10:36:42;;;;;;;38.28;22.35;;;5.40;90.00;;;;;;5023979;28;20088;-71
2021/03/02 10:39:13;;;;;;;35.50;21.65;;;5.70;88.70;;;;;;5006192;28;20050;-72
2021/03/02 10:41:40;;;;;;;35.30;22.55;;;5.70;88.40;;;;;;4985721;28;20058;-72
2021/03/02 10:44:06;;;;;;;35.90;22.67;;;5.90;87.40;;;;;;5002261;28;20049;-64
2021/03/02 10:46:32;;;;;;;33.42;20.45;;;6.00;87.80;;;;;;5000012;28;20061;-65
2021/03/02 10:48:59;;;;;;;34.55;22.00;;;6.10;86.60;;;;;;5005505;28;21356;-65
2021/03/02 10:51:26;;;;;;;32.63;20.83;;;6.30;86.90;;;;;;5003867;28;20038;-66
2021/03/02 10:53:54;;;;;;;29.65;19.40;;;6.40;85.70;;;;;;5000939;28;20033;-67
2021/03/02 10:56:20;;;;;;;26.77;17.92;;;6.40;84.90;;;;;;4995032;28;20549;-69
2021/03/02 10:58:46;;;;;;;26.52;18.90;;;6.50;84.60;;;;;;4996836;28;20039;-67
2021/03/02 11:01:12;;;;;;;25.60;18.02;;;6.40;84.80;;;;;;5003780;28;20086;-68
2021/03/02 11:03:39;;;;;;;27.58;18.38;;;6.60;84.20;;;;;;5011798;28;20041;-69
2021/03/02 11:06:07;;;;;;;25.38;16.58;;;6.70;83.20;;;;;;5016281;28;20026;-68
2021/03/02 11:08:33;;;;;;;24.48;17.48;;;6.70;83.00;;;;;;5012001;28;20030;-67
2021/03/02 11:10:58;;;;;;;28.05;18.33;;;6.70;83.80;;;;;;5001112;28;20046;-64
2021/03/02 11:13:24;;;;;;;26.95;19.63;;;6.70;83.60;;;;;;4997388;28;20041;-65
2021/03/02 11:15:50;;;;;;;23.75;17.13;;;6.90;82.70;;;;;;4994908;28;20482;-66
2021/03/02 11:18:15;;;;;;;26.65;17.58;;;6.70;83.80;;;;;;5007523;28;20073;-65
2021/03/02 11:20:45;;;;;;;26.10;18.48;;;6.70;83.70;;;;;;5015223;28;20038;-65
2021/03/02 11:23:14;;;;;;;25.55;18.15;;;6.70;83.40;;;;;;5013230;28;20026;-65
2021/03/02 11:25:40;;;;;;;25.70;16.40;;;6.80;82.90;;;;;;5007349;28;20543;-65
2021/03/02 11:28:09;;;;;;;25.65;18.00;;;6.70;83.10;;;;;;5016081;28;20037;-64
2021/03/02 11:30:35;;;;;;;30.45;20.05;;;6.70;83.80;;;;;;5013540;28;20038;-65
2021/03/02 11:33:02;;;;;;;31.50;19.65;;;6.50;85.20;;;;;;5009140;28;20083;-64
2021/03/02 11:35:30;;;;;;;32.55;18.42;;;6.70;85.00;;;;;;5015511;28;20076;-65
2021/03/02 11:37:56;;;;;;;27.95;18.98;;;6.90;84.90;;;;;;5008951;28;20038;-66
2021/03/02 11:40:22;;;;;;;25.17;17.92;;;6.90;84.70;;;;;;4997929;28;20041;-67
2021/03/02 11:42:53;;;;;;;26.05;18.05;;;6.80;85.60;;;;;;5014842;28;20057;-66
2021/03/02 11:45:20;;;;;;;30.67;18.73;;;6.90;84.20;;;;;;5015480;28;20065;-64
2021/03/02 11:47:45;;;;;;;29.10;20.17;;;7.10;84.10;;;;;;5014589;28;20030;-67
2021/03/02 11:50:12;;;;;;;29.15;19.98;;;6.80;85.60;;;;;;5031114;28;20026;-67
2021/03/02 11:52:38;;;;;;;27.10;18.98;;;7.00;85.10;;;;;;5013970;28;20064;-67
2021/03/02 11:55:05;;;;;;;26.08;18.02;;;7.20;84.20;;;;;;5015003;28;20037;-64
2021/03/02 11:57:31;;;;;;;26.60;18.83;;;7.30;83.20;;;;;;5009491;28;20498;-68
2021/03/02 12:00:00;;;;;;;26.20;19.13;;;7.30;83.80;;;;;;4995868;28;20525;-66
2021/03/02 12:02:26;;;;;;;30.90;21.35;;;7.50;83.30;;;;;;4997679;28;20100;-66
2021/03/02 12:04:52;;;;;;;30.77;20.55;;;7.70;82.60;;;;;;5005048;28;20501;-66
2021/03/02 12:07:18;;;;;;;33.83;22.88;;;7.90;82.10;;;;;;5008277;28;20048;-65
2021/03/02 12:09:44;;;;;;;38.47;24.20;;;8.00;81.50;;;;;;5012075;28;20437;-65
2021/03/02 12:12:09;;;;;;;34.15;22.23;;;8.10;80.80;;;;;;5013278;28;20025;-64
2021/03/02 12:14:35;;;;;;;42.60;26.45;;;8.10;80.70;;;;;;5001906;28;20056;-63
2021/03/02 12:17:01;;;;;;;43.50;26.75;;;8.20;80.30;;;;;;5015094;28;20056;-65
2021/03/02 12:19:28;;;;;;;45.83;27.52;;;8.30;80.70;;;;;;5006953;28;20146;-62
2021/03/02 12:21:53;;;;;;;52.75;31.80;;;8.40;80.50;;;;;;5008879;28;20029;-64
2021/03/02 12:24:19;;;;;;;58.83;31.92;;;8.50;80.20;;;;;;5004301;28;20042;-62
2021/03/02 12:26:45;;;;;;;62.67;33.30;;;8.60;80.20;;;;;;5010331;28;20033;-64
2021/03/02 12:29:11;;;;;;;60.17;33.20;;;8.70;80.20;;;;;;5006060;28;20528;-64
2021/03/02 12:31:36;;;;;;;62.55;34.05;;;8.80;79.70;;;;;;5004221;28;20038;-62
2021/03/02 12:34:02;;;;;;;63.17;35.30;;;8.70;80.10;;;;;;5011338;28;20073;-65
2021/03/02 12:36:28;;;;;;;59.75;33.97;;;8.80;80.20;;;;;;4995332;28;20046;-64
2021/03/02 12:38:54;;;;;;;62.53;33.17;;;8.90;79.10;;;;;;5006319;28;20076;-62
2021/03/02 12:41:20;;;;;;;62.40;36.33;;;8.90;79.10;;;;;;5009525;28;20034;-63